createdAt,value
2019-02-25T00:03:00.576Z,49.50
2019-02-25T00:07:06.015Z,50.60
2019-02-25T00:11:11.344Z,50.70
2019-02-25T00:15:16.496Z,49.30
2019-02-25T00:19:21.559Z,49.90
2019-02-25T00:23:26.930Z,49.50
2019-02-25T00:27:32.191Z,49.60
2019-02-25T00:31:37.409Z,50.00
2019-02-25T00:35:42.619Z,49.50
2019-02-25T00:39:47.954Z,48.90
2019-02-25T00:43:53.203Z,50.10
2019-02-25T00:48:00.126Z,49.30
2019-02-25T00:52:05.321Z,50.00
2019-02-25T00:56:10.450Z,51.40
2019-02-25T01:00:16.568Z,51.20
2019-02-25T01:04:21.747Z,51.40
2019-02-25T01:08:27.538Z,53.30
2019-02-25T01:12:32.764Z,52.90
2019-02-25T01:16:38.345Z,53.40
2019-02-25T01:20:43.698Z,54.00
2019-02-25T01:24:48.969Z,53.30
2019-02-25T01:28:54.239Z,54.90
2019-02-25T01:32:59.646Z,52.80
2019-02-25T01:37:04.840Z,53.70
2019-02-25T01:41:11.114Z,51.40
2019-02-25T01:45:16.683Z,52.20
2019-02-25T01:49:22.310Z,52.80
2019-02-25T01:53:27.947Z,53.10
2019-02-25T01:57:33.274Z,54.60
2019-02-25T02:01:38.490Z,54.20
2019-02-25T02:05:43.721Z,55.20
2019-02-25T02:09:49.386Z,55.40
2019-02-25T02:13:54.603Z,54.10
2019-02-25T02:17:59.875Z,54.60
2019-02-25T02:22:05.076Z,53.90
2019-02-25T02:26:10.407Z,54.50
2019-02-25T02:30:17.289Z,55.60
2019-02-25T02:34:22.593Z,54.30
2019-02-25T02:38:27.751Z,54.20
2019-02-25T02:42:32.934Z,54.50
2019-02-25T02:47:37.192Z,53.70
2019-02-25T02:51:42.351Z,54.40
2019-02-25T02:55:47.751Z,53.20
2019-02-25T02:59:52.965Z,54.10
2019-02-25T03:03:58.098Z,54.10
2019-02-25T03:08:03.269Z,53.80
2019-02-25T03:12:08.341Z,54.30
2019-02-25T03:16:13.992Z,54.10
2019-02-25T03:20:19.254Z,54.70
2019-02-25T03:24:24.851Z,52.90
2019-02-25T03:28:29.987Z,53.20
2019-02-25T03:32:35.578Z,52.50
2019-02-25T03:36:40.727Z,53.70
2019-02-25T03:40:46.094Z,53.20
2019-02-25T03:44:51.213Z,52.90
2019-02-25T03:48:56.621Z,52.80
2019-02-25T03:53:01.883Z,52.80
2019-02-25T03:57:07.306Z,54.10
2019-02-25T04:01:12.678Z,54.80
2019-02-25T04:05:18.001Z,55.40
2019-02-25T04:09:23.404Z,55.40
2019-02-25T04:13:28.424Z,56.00
2019-02-25T04:17:33.787Z,57.20
2019-02-25T04:21:39.174Z,57.80
2019-02-25T04:25:44.467Z,57.40
2019-02-25T04:29:49.585Z,58.50
2019-02-25T04:33:54.869Z,58.70
2019-02-25T04:38:00.060Z,59.10
2019-02-25T04:42:05.446Z,58.50
2019-02-25T04:46:10.775Z,59.30
2019-02-25T04:50:16.335Z,59.20
2019-02-25T04:54:21.710Z,59.90
2019-02-25T04:58:26.904Z,61.20
2019-02-25T05:02:32.399Z,62.00
2019-02-25T05:06:37.639Z,63.80
2019-02-25T05:10:42.889Z,64.80
2019-02-25T05:14:48.218Z,65.60
2019-02-25T05:18:53.357Z,66.20
2019-02-25T05:22:58.721Z,67.00
2019-02-25T05:27:03.968Z,68.60
2019-02-25T05:31:09.335Z,69.40
2019-02-25T05:35:14.795Z,69.70
2019-02-25T05:39:20.179Z,70.30
2019-02-25T05:43:25.379Z,71.00
2019-02-25T05:47:30.837Z,70.10
2019-02-25T05:51:35.990Z,68.80
2019-02-25T05:55:41.259Z,68.50
2019-02-25T05:59:47.413Z,67.40
2019-02-25T06:03:54.284Z,66.70
2019-02-25T06:07:59.367Z,66.20
2019-02-25T06:12:04.703Z,65.40
2019-02-25T06:16:09.866Z,65.50
2019-02-25T06:20:17.486Z,65.80
2019-02-25T06:24:22.655Z,66.30
2019-02-25T06:28:28.635Z,67.60
2019-02-25T06:32:33.842Z,69.10
2019-02-25T06:36:39.217Z,69.70
2019-02-25T06:40:44.528Z,70.30
2019-02-25T06:44:49.932Z,71.30
2019-02-25T06:48:55.110Z,71.70
2019-02-25T06:53:00.535Z,71.50
2019-02-25T06:57:05.680Z,70.00
2019-02-25T07:01:11.047Z,68.60
2019-02-25T07:05:28.192Z,67.60
2019-02-25T07:09:44.786Z,66.40
2019-02-25T07:14:14.858Z,66.60
2019-02-25T07:18:45.304Z,65.00
2019-02-25T07:23:08.592Z,63.50
2019-02-25T07:27:35.501Z,62.90
2019-02-25T07:32:18.003Z,62.70
2019-02-25T07:36:54.348Z,62.30
2019-02-25T07:41:15.105Z,61.80
2019-02-25T07:45:36.654Z,62.00
2019-02-25T07:49:55.999Z,61.60
2019-02-25T07:54:13.310Z,61.70
2019-02-25T07:58:31.859Z,59.20
2019-02-25T08:03:14.543Z,59.20
2019-02-25T08:07:37.692Z,59.40
2019-02-25T08:12:04.964Z,59.10
2019-02-25T08:16:27.875Z,57.70
2019-02-25T08:20:52.118Z,56.50
2019-02-25T08:25:14.285Z,54.90
2019-02-25T08:29:37.313Z,54.60
2019-02-25T08:33:55.550Z,54.40
2019-02-25T08:38:19.532Z,53.30
2019-02-25T08:42:34.298Z,50.60
2019-02-25T08:47:02.219Z,48.60
2019-02-25T08:51:07.758Z,47.10
2019-02-25T08:55:13.000Z,46.10
2019-02-25T08:59:18.237Z,44.90
2019-02-25T09:03:23.634Z,43.20
2019-02-25T09:07:28.976Z,43.80
2019-02-25T09:11:34.254Z,42.60
2019-02-25T09:15:39.705Z,41.50
2019-02-25T09:19:44.986Z,40.60
2019-02-25T09:23:50.243Z,39.70
2019-02-25T09:27:55.427Z,39.90
2019-02-25T09:32:00.899Z,40.50
2019-02-25T09:36:06.080Z,39.90
2019-02-25T09:40:13.508Z,40.00
2019-02-25T09:44:18.722Z,40.60
2019-02-25T09:48:24.066Z,39.80
2019-02-25T09:52:29.286Z,40.90
2019-02-25T09:56:34.617Z,40.70
2019-02-25T10:00:39.880Z,40.90
2019-02-25T10:04:45.094Z,40.00
2019-02-25T10:08:50.323Z,40.00
2019-02-25T10:12:55.552Z,40.40
2019-02-25T10:17:00.920Z,39.10
2019-02-25T10:21:06.076Z,36.80
2019-02-25T10:25:11.365Z,36.60
2019-02-25T10:29:16.657Z,34.90
2019-02-25T10:33:21.991Z,33.40
2019-02-25T10:37:27.179Z,33.00
2019-02-25T10:41:32.511Z,32.80
2019-02-25T10:45:39.006Z,33.20
2019-02-25T10:49:44.817Z,34.30
2019-02-25T10:53:51.616Z,34.20
2019-02-25T10:57:58.847Z,34.70
2019-02-25T11:02:03.799Z,34.90
2019-02-25T11:06:09.018Z,35.10
2019-02-25T11:10:35.666Z,35.20
2019-02-25T11:14:43.316Z,34.90
2019-02-25T11:18:50.040Z,35.40
2019-02-25T11:22:55.103Z,35.80
2019-02-25T11:27:01.062Z,36.30
2019-02-25T11:31:08.262Z,36.70
2019-02-25T11:35:14.136Z,36.70
2019-02-25T11:39:20.065Z,37.50
2019-02-25T11:43:25.334Z,37.00
2019-02-25T11:47:30.605Z,34.50
2019-02-25T11:51:35.910Z,31.80
2019-02-25T11:55:41.443Z,28.30
2019-02-25T11:59:46.731Z,26.80
2019-02-25T12:03:51.909Z,25.90
2019-02-25T12:07:57.090Z,26.30
2019-02-25T12:12:02.411Z,27.00
2019-02-25T12:16:07.526Z,25.50
2019-02-25T12:20:13.250Z,25.60
2019-02-25T12:24:18.557Z,25.70
2019-02-25T12:28:25.090Z,25.70
2019-02-25T12:32:30.336Z,24.20
2019-02-25T12:36:35.490Z,23.50
2019-02-25T12:40:41.121Z,23.80
2019-02-25T12:44:46.632Z,25.80
2019-02-25T12:48:52.046Z,27.40
2019-02-25T12:52:57.165Z,29.10
2019-02-25T12:57:02.546Z,29.60
2019-02-25T13:01:09.246Z,29.80
2019-02-25T13:05:15.464Z,29.80
2019-02-25T13:09:20.637Z,29.00
2019-02-25T13:13:26.322Z,29.20
2019-02-25T13:17:31.649Z,30.70
2019-02-25T13:21:36.854Z,31.50
2019-02-25T13:25:42.149Z,30.50
2019-02-25T13:29:49.465Z,28.90
2019-02-25T13:33:55.242Z,27.30
2019-02-25T13:38:00.505Z,27.50
2019-02-25T13:42:05.906Z,28.80
2019-02-25T13:46:11.126Z,29.70
2019-02-25T13:50:18.152Z,27.80
2019-02-25T13:54:23.074Z,26.80
2019-02-25T13:58:28.244Z,24.70
2019-02-25T14:02:33.349Z,25.30
2019-02-25T14:06:38.331Z,25.70
2019-02-25T14:10:43.373Z,23.80
2019-02-25T14:14:48.360Z,24.70
2019-02-25T14:18:53.432Z,25.30
2019-02-25T14:23:00.215Z,24.40
2019-02-25T14:27:05.040Z,25.80
2019-02-25T14:31:11.125Z,28.00
2019-02-25T14:35:18.178Z,29.10
2019-02-25T14:39:28.109Z,26.80
2019-02-25T14:43:36.714Z,25.40
2019-02-25T14:47:40.030Z,27.20
2019-02-25T14:51:45.641Z,31.00
2019-02-25T14:55:53.166Z,33.60
2019-02-25T14:59:58.878Z,35.50
2019-02-25T15:04:06.491Z,37.50
2019-02-25T15:08:12.894Z,38.50
2019-02-25T15:12:20.625Z,40.00
2019-02-25T15:16:26.217Z,42.10
2019-02-25T15:20:32.574Z,41.90
2019-02-25T15:24:39.461Z,42.30
2019-02-25T15:28:46.397Z,42.70
2019-02-25T15:32:57.057Z,43.20
2019-02-25T15:37:02.491Z,44.10
2019-02-25T15:41:11.181Z,44.40
2019-02-25T15:45:20.575Z,45.40
2019-02-25T15:49:28.150Z,46.30
2019-02-25T15:53:35.927Z,46.50
2019-02-25T15:57:42.231Z,48.30
2019-02-25T16:01:48.725Z,49.20
2019-02-25T16:05:58.014Z,50.10
2019-02-25T16:10:05.009Z,49.70
2019-02-25T16:14:12.122Z,51.70
2019-02-25T16:18:18.033Z,52.40
2019-02-25T16:22:25.743Z,54.20
2019-02-25T16:26:34.275Z,55.20
2019-02-25T16:30:42.411Z,56.40
2019-02-25T16:34:48.987Z,57.60
2019-02-25T16:38:58.072Z,59.50
2019-02-25T16:43:05.234Z,60.20
2019-02-25T16:47:12.189Z,61.60
2019-02-25T16:51:19.494Z,62.00
2019-02-25T16:55:27.723Z,63.50
2019-02-25T16:59:35.077Z,64.00
2019-02-25T17:03:43.892Z,65.00
2019-02-25T17:07:50.609Z,65.70
2019-02-25T17:11:58.130Z,67.10
2019-02-25T17:16:03.898Z,67.90
2019-02-25T17:20:13.130Z,69.10
2019-02-25T17:24:18.797Z,68.90
2019-02-25T17:28:25.035Z,69.90
2019-02-25T17:32:32.793Z,70.70
2019-02-25T17:36:39.553Z,71.60
2019-02-25T17:40:45.510Z,72.10
2019-02-25T17:44:53.638Z,72.90
2019-02-25T17:49:00.255Z,73.50
2019-02-25T17:53:07.183Z,75.00
2019-02-25T17:57:14.190Z,75.10
2019-02-25T18:01:21.987Z,75.70
2019-02-25T18:05:31.159Z,77.20
2019-02-25T18:09:39.919Z,77.70
2019-02-25T18:13:46.847Z,77.80
2019-02-25T18:17:53.555Z,78.20
2019-02-25T18:21:59.796Z,79.50
2019-02-25T18:26:05.051Z,79.50
2019-02-25T18:30:12.286Z,80.60
2019-02-25T18:34:18.706Z,81.80
2019-02-25T18:38:25.153Z,82.90
2019-02-25T18:42:34.865Z,83.40
2019-02-25T18:46:41.741Z,84.10
2019-02-25T18:50:50.173Z,84.20
2019-02-25T18:54:55.987Z,84.40
2019-02-25T18:59:08.861Z,84.60
2019-02-25T19:03:10.574Z,85.90
2019-02-25T19:07:16.923Z,86.60
2019-02-25T19:11:23.597Z,86.60
2019-02-25T19:15:31.440Z,86.50
2019-02-25T19:19:38.959Z,86.70
2019-02-25T19:23:46.454Z,87.30
2019-02-25T19:27:54.453Z,87.40
2019-02-25T19:32:02.250Z,88.70
2019-02-25T19:36:10.750Z,89.30
2019-02-25T19:40:20.008Z,89.80
2019-02-25T19:44:27.826Z,90.20
2019-02-25T19:48:35.848Z,90.50
2019-02-25T19:52:44.287Z,90.50
2019-02-25T19:56:53.150Z,90.80
2019-02-25T20:01:01.008Z,91.00
2019-02-25T20:05:09.547Z,91.40
2019-02-25T20:09:16.090Z,91.80
2019-02-25T20:13:22.699Z,92.10
2019-02-25T20:17:30.506Z,92.40
2019-02-25T20:21:37.078Z,92.30
2019-02-25T20:25:48.499Z,92.80
2019-02-25T20:29:55.457Z,93.00
2019-02-25T20:34:02.830Z,93.50
2019-02-25T20:38:12.138Z,93.40
2019-02-25T20:42:21.762Z,93.80
2019-02-25T20:46:30.726Z,94.10
2019-02-25T20:50:37.402Z,94.40
2019-02-25T20:54:45.957Z,94.40
2019-02-25T20:58:53.363Z,94.20
2019-02-25T21:02:59.382Z,94.30
2019-02-25T21:07:06.548Z,94.70
2019-02-25T21:11:15.640Z,94.70
2019-02-25T21:15:21.437Z,94.50
2019-02-25T21:19:30.232Z,94.50
2019-02-25T21:23:36.494Z,94.90
2019-02-25T21:27:42.068Z,94.90
2019-02-25T21:31:49.661Z,94.40
2019-02-25T21:35:56.278Z,95.20
2019-02-25T21:40:05.122Z,94.40
2019-02-25T21:44:16.588Z,93.90
2019-02-25T21:48:23.093Z,93.80
2019-02-25T21:52:32.564Z,93.50
2019-02-25T21:56:37.609Z,93.90
2019-02-25T22:00:45.075Z,93.90
2019-02-25T22:04:51.833Z,93.70
2019-02-25T22:09:00.699Z,93.90
2019-02-25T22:13:08.840Z,93.90
2019-02-25T22:17:15.128Z,94.00
2019-02-25T22:21:22.871Z,94.00
2019-02-25T22:25:30.924Z,93.90
2019-02-25T22:29:36.960Z,93.80
2019-02-25T22:33:43.025Z,93.20
2019-02-25T22:37:52.033Z,93.30
2019-02-25T22:41:55.131Z,93.10
2019-02-25T22:46:02.362Z,92.80
2019-02-25T22:50:08.675Z,92.80
2019-02-25T22:54:16.617Z,92.80
2019-02-25T22:58:21.718Z,92.90
2019-02-25T23:02:28.143Z,92.70
2019-02-25T23:06:33.386Z,92.90
2019-02-25T23:10:41.949Z,92.90
2019-02-25T23:14:45.800Z,92.30
2019-02-25T23:18:50.949Z,92.20
2019-02-25T23:22:57.384Z,91.90
2019-02-25T23:27:03.003Z,91.80
2019-02-25T23:31:08.373Z,91.70
2019-02-25T23:35:15.585Z,91.50
2019-02-25T23:39:20.473Z,91.50
2019-02-25T23:43:25.855Z,91.60
2019-02-25T23:47:33.377Z,91.60
2019-02-25T23:51:39.529Z,91.00
2019-02-25T23:55:47.291Z,91.10
2019-02-25T23:59:54.091Z,90.70
